Time;durP1;ratioP1;P1;durP2;ratioP2;P2;SDS_P1;SDS_P2;PMS_P1;PMS_P2;Temp;Humidity;BMP_temperature;BMP_pressure;BME280_temperature;BME280_humidity;BME280_pressure;Samples;Min_cycle;Max_cycle;Signal;HPM_P1;HPM_P2
2022/05/08 00:01:14;;;;;;;;;;;;;;;20.89;50.61;102631.88;7282732;19;153602;-55
2022/05/08 00:03:41;;;;;;;;;;;;;;;20.88;50.55;102624.53;7285252;19;151526;-56
2022/05/08 00:06:10;;;;;;;;;;;;;;;20.88;50.78;102619.78;7281595;19;153838;-55
2022/05/08 00:08:38;;;;;;;;;;;;;;;20.86;50.58;102622.84;7290021;19;154492;-55
2022/05/08 00:11:06;;;;;;;;;;;;;;;20.87;50.70;102629.31;7284571;19;153843;-55
2022/05/08 00:13:35;;;;;;;;;;;;;;;20.86;50.67;102625.66;7281505;19;154458;-55
2022/05/08 00:16:02;;;;;;;;;;;;;;;20.85;51.05;102623.94;7282317;19;152156;-55
2022/05/08 00:18:30;;;;;;;;;;;;;;;20.84;50.80;102625.09;7282837;19;153422;-55
2022/05/08 00:20:57;;;;;;;;;;;;;;;20.85;51.06;102625.91;7280733;19;153286;-55
2022/05/08 00:23:23;;;;;;;;;;;;;;;20.85;51.01;102623.09;7285319;19;153232;-55
2022/05/08 00:25:50;;;;;;;;;;;;;;;20.84;50.94;102624.25;7283487;19;153320;-55
2022/05/08 00:28:17;;;;;;;;;;;;;;;20.83;51.36;102620.59;7280700;19;153723;-55
2022/05/08 00:30:44;;;;;;;;;;;;;;;20.84;51.33;102622.28;7290105;19;151764;-55
2022/05/08 00:33:10;;;;;;;;;;;;;;;20.84;51.63;102633.53;7279848;19;152707;-55
2022/05/08 00:35:37;;;;;;;;;;;;;;;20.84;51.33;102627.91;7283877;19;152034;-55
2022/05/08 00:38:04;;;;;;;;;;;;;;;20.85;51.44;102629.56;7285386;19;153087;-55
2022/05/08 00:40:35;;;;;;;;;;;;;;;20.84;51.61;102627.91;7281620;19;153955;-55
2022/05/08 00:43:12;;;;;;;;;;;;;;;20.85;52.15;102628.72;7282914;19;152072;-55
2022/05/08 00:45:39;;;;;;;;;;;;;;;20.88;51.94;102635.78;7284218;19;153602;-55
2022/05/08 00:48:06;;;;;;;;;;;;;;;20.89;52.29;102621.47;7283874;19;154385;-55
2022/05/08 00:50:32;;;;;;;;;;;;;;;20.88;51.81;102631.00;7285302;19;152247;-55
2022/05/08 00:52:59;;;;;;;;;;;;;;;20.86;52.03;102622.00;7289529;19;154180;-55
2022/05/08 00:55:28;;;;;;;;;;;;;;;20.85;51.84;102626.75;7284423;19;152193;-55
2022/05/08 00:57:54;;;;;;;;;;;;;;;20.85;52.07;102623.09;7282515;19;152853;-54
2022/05/08 01:00:22;;;;;;;;;;;;;;;20.85;52.07;102623.09;7278485;19;153675;-55
2022/05/08 01:02:49;;;;;;;;;;;;;;;20.86;52.31;102620.03;7283758;19;151686;-55
2022/05/08 01:05:16;;;;;;;;;;;;;;;20.85;52.07;102620.28;7282193;19;153855;-55
2022/05/08 01:07:43;;;;;;;;;;;;;;;20.85;52.31;102625.91;7281020;19;153675;-55
2022/05/08 01:10:10;;;;;;;;;;;;;;;20.85;52.62;102623.94;7282726;19;152217;-55
2022/05/08 01:12:44;;;;;;;;;;;;;;;20.86;52.72;102630.41;7282413;19;152806;-55
2022/05/08 01:15:14;;;;;;;;;;;;;;;20.86;52.13;102624.81;7288809;19;153112;-55
2022/05/08 01:17:41;;;;;;;;;;;;;;;20.86;52.23;102625.66;7282511;19;153858;-55
2022/05/08 01:20:08;;;;;;;;;;;;;;;20.85;52.44;102623.09;7282759;19;154266;-55
2022/05/08 01:22:34;;;;;;;;;;;;;;;20.85;52.91;102623.09;7282088;19;152329;-55
2022/05/08 01:25:02;;;;;;;;;;;;;;;20.86;52.74;102630.41;7281658;19;153439;-56
2022/05/08 01:27:29;;;;;;;;;;;;;;;20.90;52.84;102627.91;7279432;19;154106;-55
2022/05/08 01:29:56;;;;;;;;;;;;;;;20.90;53.15;102625.94;7283627;19;152129;-55
2022/05/08 01:32:23;;;;;;;;;;;;;;;20.88;52.98;102628.19;7281177;19;152642;-55
2022/05/08 01:34:50;;;;;;;;;;;;;;;20.90;52.89;102625.09;7282714;19;154021;-55
2022/05/08 01:37:16;;;;;;;;;;;;;;;20.90;52.87;102622.28;7290727;19;152065;-55
2022/05/08 01:39:43;;;;;;;;;;;;;;;20.90;53.07;102620.34;7280565;19;152925;-55
2022/05/08 01:42:10;;;;;;;;;;;;;;;20.89;52.93;102629.06;7283656;19;151608;-56
2022/05/08 01:44:37;;;;;;;;;;;;;;;20.88;53.42;102613.31;7282758;19;152577;-55
2022/05/08 01:49:42;;;;;;;;;;;;;;;20.88;53.02;102616.13;7283738;19;152126;-55
2022/05/08 01:52:09;;;;;;;;;;;;;;;20.88;53.26;102616.97;7284033;19;153106;-55
2022/05/08 01:54:36;;;;;;;;;;;;;;;20.88;53.14;102613.31;7278980;19;153241;-55
2022/05/08 01:57:03;;;;;;;;;;;;;;;20.86;52.73;102614.41;7279978;19;151967;-55
2022/05/08 01:59:30;;;;;;;;;;;;;;;20.85;52.99;102615.53;7288858;19;152372;-55
2022/05/08 02:01:57;;;;;;;;;;;;;;;20.85;53.17;102618.34;7279107;19;151821;-55
2022/05/08 02:04:24;;;;;;;;;;;;;;;20.86;53.21;102613.56;7283112;19;152658;-55
2022/05/08 02:06:51;;;;;;;;;;;;;;;20.87;52.97;102615.25;7280564;19;155351;-55
2022/05/08 02:09:18;;;;;;;;;;;;;;;20.86;52.83;102614.41;7282869;19;151795;-55
2022/05/08 02:11:45;;;;;;;;;;;;;;;20.90;53.16;102619.47;7279569;19;152798;-59
2022/05/08 02:14:12;;;;;;;;;;;;;;;20.89;53.15;102615.84;7279266;19;153508;-55
2022/05/08 02:16:39;;;;;;;;;;;;;;;20.88;53.29;102616.13;7281902;19;151965;-55
2022/05/08 02:19:06;;;;;;;;;;;;;;;20.95;53.26;102622.34;7287597;19;152967;-55
2022/05/08 02:21:33;;;;;;;;;;;;;;;20.96;53.29;102616.44;7278586;19;151562;-55
2022/05/08 02:23:59;;;;;;;;;;;;;;;20.95;52.83;102625.13;7279976;19;153988;-55
2022/05/08 02:26:26;;;;;;;;;;;;;;;20.98;52.92;102627.44;7280364;19;154304;-55
2022/05/08 02:28:53;;;;;;;;;;;;;;;20.97;52.92;102622.91;7281962;19;151559;-55
2022/05/08 02:31:20;;;;;;;;;;;;;;;20.95;52.85;102617.56;7284739;19;155785;-55
2022/05/08 02:33:47;;;;;;;;;;;;;;;20.96;52.84;102632.47;7287234;19;152935;-55
2022/05/08 02:36:13;;;;;;;;;;;;;;;20.93;52.70;102628.25;7285429;19;152133;-55
2022/05/08 02:38:40;;;;;;;;;;;;;;;20.90;53.04;102623.13;7287896;19;153074;-55
2022/05/08 02:41:07;;;;;;;;;;;;;;;20.92;53.21;102634.97;7293095;19;153993;-55
2022/05/08 02:43:34;;;;;;;;;;;;;;;20.94;53.28;102631.91;7288303;19;153484;-56
2022/05/08 02:46:02;;;;;;;;;;;;;;;20.93;53.52;102631.06;7285016;19;153163;-55
2022/05/08 02:48:29;;;;;;;;;;;;;;;20.94;53.22;102629.91;7284677;19;152033;-56
2022/05/08 02:50:56;;;;;;;;;;;;;;;20.94;52.98;102640.34;7288192;19;152749;-55
2022/05/08 02:53:22;;;;;;;;;;;;;;;20.92;53.22;102632.16;7286495;19;154824;-56
2022/05/08 03:01:04;;;;;;;;;;;;;;;20.97;53.48;102649.06;7283710;19;154523;-55
2022/05/08 03:03:31;;;;;;;;;;;;;;;20.92;53.29;102639.75;7293135;19;152042;-55
2022/05/08 03:05:58;;;;;;;;;;;;;;;20.94;53.57;102638.34;7285426;19;153397;-55
2022/05/08 03:08:26;;;;;;;;;;;;;;;20.94;53.43;102626.28;7284932;19;152239;-55
2022/05/08 03:13:29;;;;;;;;;;;;;;;20.91;53.68;102636.09;7285905;19;154583;-55
2022/05/08 03:15:56;;;;;;;;;;;;;;;20.89;53.26;102632.72;7284916;19;152629;-55
2022/05/08 03:18:23;;;;;;;;;;;;;;;20.89;53.73;102634.66;7286526;19;152957;-55
2022/05/08 03:20:50;;;;;;;;;;;;;;;20.90;53.46;102631.56;7283635;19;153370;-55
2022/05/08 03:23:17;;;;;;;;;;;;;;;20.91;53.41;102635.22;7287808;19;152258;-55
2022/05/08 03:25:44;;;;;;;;;;;;;;;20.91;53.47;102633.28;7292411;19;152769;-55
2022/05/08 03:28:12;;;;;;;;;;;;;;;20.93;53.28;102633.88;7284746;19;152049;-55
2022/05/08 03:30:40;;;;;;;;;;;;;;;20.94;53.45;102631.91;7287225;19;153211;-55
2022/05/08 03:33:09;;;;;;;;;;;;;;;20.95;53.47;102636.38;7284808;19;152110;-55
2022/05/08 03:35:36;;;;;;;;;;;;;;;20.92;53.55;102634.13;7286625;19;151910;-55
2022/05/08 03:38:03;;;;;;;;;;;;;;;20.89;53.42;102632.72;7284143;19;155748;-55
2022/05/08 03:40:32;;;;;;;;;;;;;;;20.86;53.62;102628.47;7282074;19;153444;-55
2022/05/08 03:42:59;;;;;;;;;;;;;;;20.84;53.57;102639.13;7286542;19;151712;-55
2022/05/08 03:45:27;;;;;;;;;;;;;;;20.83;53.67;102628.16;7283832;19;153262;-55
2022/05/08 03:47:54;;;;;;;;;;;;;;;20.83;53.16;102634.63;7290763;19;153286;-55
2022/05/08 03:50:22;;;;;;;;;;;;;;;20.84;53.21;102639.13;7283884;19;153963;-55
2022/05/08 03:52:49;;;;;;;;;;;;;;;20.83;53.58;102639.41;7285649;19;153533;-55
2022/05/08 03:55:16;;;;;;;;;;;;;;;20.83;53.57;102637.44;7286842;19;151750;-56
2022/05/08 03:57:43;;;;;;;;;;;;;;;20.82;53.50;102646.97;7283557;19;153236;-55
2022/05/08 04:00:10;;;;;;;;;;;;;;;20.80;53.45;102649.19;7285324;19;153475;-55
2022/05/08 04:02:37;;;;;;;;;;;;;;;20.80;53.27;102649.19;7281003;19;151640;-55
2022/05/08 04:05:04;;;;;;;;;;;;;;;20.81;53.22;102647.22;7285646;19;153895;-55
2022/05/08 04:07:31;;;;;;;;;;;;;;;20.80;53.43;102639.94;7283758;19;154866;-55
2022/05/08 04:09:58;;;;;;;;;;;;;;;20.80;53.25;102645.56;7294000;19;152062;-56
2022/05/08 04:12:26;;;;;;;;;;;;;;;20.80;53.52;102643.56;7282168;19;153402;-55
2022/05/08 04:14:53;;;;;;;;;;;;;;;20.84;53.01;102647.56;7284576;19;151736;-55
2022/05/08 04:17:20;;;;;;;;;;;;;;;20.82;53.43;102649.78;7284077;19;152688;-55
2022/05/08 04:19:47;;;;;;;;;;;;;;;20.83;53.12;102647.81;7284597;19;153898;-55
2022/05/08 04:24:51;;;;;;;;;;;;;;;20.85;53.11;102654.00;7283011;19;153394;-55
2022/05/08 04:27:18;;;;;;;;;;;;;;;20.83;53.59;102647.81;7281258;19;152638;-55
2022/05/08 04:29:45;;;;;;;;;;;;;;;20.81;53.26;102650.03;7291915;19;152283;-54
2022/05/08 04:32:12;;;;;;;;;;;;;;;20.80;53.35;102649.19;7281426;19;154166;-55
2022/05/08 04:34:39;;;;;;;;;;;;;;;20.80;53.50;102651.19;7282256;19;152446;-55
2022/05/08 04:37:06;;;;;;;;;;;;;;;20.79;53.19;102650.34;7284784;19;153053;-55
2022/05/08 04:39:33;;;;;;;;;;;;;;;20.84;53.23;102644.75;7282194;19;154199;-55
2022/05/08 04:42:03;;;;;;;;;;;;;;;20.83;53.32;102653.44;7282915;19;151891;-55
2022/05/08 04:44:30;;;;;;;;;;;;;;;20.85;53.49;102654.00;7284730;19;153228;-55
2022/05/08 04:46:56;;;;;;;;;;;;;;;20.82;53.40;102655.41;7281896;19;153245;-55
2022/05/08 04:49:23;;;;;;;;;;;;;;;20.83;52.92;102657.09;7283782;19;151698;-54
2022/05/08 04:51:50;;;;;;;;;;;;;;;20.86;53.02;102656.56;7289022;19;152964;-55
2022/05/08 04:54:17;;;;;;;;;;;;;;;20.84;52.99;102657.97;7281432;19;151782;-56
2022/05/08 04:56:44;;;;;;;;;;;;;;;20.80;53.49;102660.44;7284832;19;153040;-55
2022/05/08 04:59:10;;;;;;;;;;;;;;;20.80;52.99;102659.63;7283389;19;154269;-55
2022/05/08 05:01:37;;;;;;;;;;;;;;;20.79;53.10;102658.75;7281748;19;152019;-55
2022/05/08 05:04:04;;;;;;;;;;;;;;;20.79;53.45;102666.34;7284062;19;153169;-55
2022/05/08 05:06:31;;;;;;;;;;;;;;;20.80;52.99;102663.25;7279655;19;154326;-55
2022/05/08 05:08:58;;;;;;;;;;;;;;;20.78;53.01;102673.91;7282539;19;152374;-57
2022/05/08 05:11:25;;;;;;;;;;;;;;;20.79;52.79;102681.25;7282260;19;153340;-55
2022/05/08 05:13:52;;;;;;;;;;;;;;;20.77;52.91;102677.84;7289196;19;156034;-55
2022/05/08 05:16:19;;;;;;;;;;;;;;;20.79;53.01;102681.25;7280454;19;152158;-55
2022/05/08 05:18:46;;;;;;;;;;;;;;;20.80;53.16;102685.72;7280428;19;152619;-55
2022/05/08 05:21:13;;;;;;;;;;;;;;;20.79;53.16;102686.00;7284258;19;151751;-55
2022/05/08 05:23:42;;;;;;;;;;;;;;;20.80;53.25;102691.34;7283518;19;152651;-55
2022/05/08 05:26:09;;;;;;;;;;;;;;;20.82;52.88;102691.06;7283034;19;154114;-55
2022/05/08 05:28:35;;;;;;;;;;;;;;;20.81;52.96;102695.00;7282953;19;151653;-55
2022/05/08 05:31:02;;;;;;;;;;;;;;;20.77;53.28;102689.06;7283322;19;153814;-55
2022/05/08 05:33:29;;;;;;;;;;;;;;;20.79;53.16;102694.44;7280279;19;154071;-55
2022/05/08 05:35:56;;;;;;;;;;;;;;;20.79;53.02;102686.00;7290442;19;151987;-54
2022/05/08 05:38:23;;;;;;;;;;;;;;;20.80;52.89;102693.31;7282256;19;154963;-55
2022/05/08 05:40:50;;;;;;;;;;;;;;;20.81;53.09;102695.84;7283500;19;152026;-55
2022/05/08 05:43:17;;;;;;;;;;;;;;;20.80;52.74;102687.72;7279378;19;153487;-55
2022/05/08 05:45:44;;;;;;;;;;;;;;;20.82;52.94;102699.50;7282393;19;154244;-54
2022/05/08 05:48:10;;;;;;;;;;;;;;;20.79;52.69;102714.94;7280062;19;152281;-55
2022/05/08 05:50:37;;;;;;;;;;;;;;;20.78;52.97;102713.25;7280363;19;153540;-56
2022/05/08 05:53:04;;;;;;;;;;;;;;;20.79;52.77;102714.09;7282152;19;153449;-55
2022/05/08 05:55:31;;;;;;;;;;;;;;;20.77;52.98;102719.13;7280238;19;152178;-55
2022/05/08 05:57:58;;;;;;;;;;;;;;;20.75;53.04;102718.56;7289564;19;153379;-55
2022/05/08 06:00:25;;;;;;;;;;;;;;;20.73;52.92;102716.00;7279252;19;152106;-55
2022/05/08 06:02:52;;;;;;;;;;;;;;;20.71;53.11;102712.63;7278951;19;153537;-55
2022/05/08 06:05:19;;;;;;;;;;;;;;;20.73;52.67;102715.16;7280291;19;154724;-55
2022/05/08 06:07:46;;;;;;;;;;;;;;;20.70;52.81;102719.34;7283134;19;152121;-55
2022/05/08 06:10:14;;;;;;;;;;;;;;;20.71;52.99;102714.59;7281294;19;152669;-55
2022/05/08 06:12:41;;;;;;;;;;;;;;;20.71;53.19;102725.81;7280687;19;155734;-55
2022/05/08 06:15:08;;;;;;;;;;;;;;;20.70;53.09;102724.13;7278303;19;151920;-55
2022/05/08 06:17:35;;;;;;;;;;;;;;;20.71;53.46;102725.81;7281274;19;153304;-55
2022/05/08 06:20:03;;;;;;;;;;;;;;;20.71;53.15;102723.03;7287890;19;151953;-55
2022/05/08 06:22:32;;;;;;;;;;;;;;;20.73;53.13;102729.19;7279505;19;154782;-55
2022/05/08 06:24:59;;;;;;;;;;;;;;;20.74;53.58;102733.72;7279489;19;154451;-55
2022/05/08 06:27:26;;;;;;;;;;;;;;;20.74;53.59;102730.91;7278953;19;152489;-56
2022/05/08 06:29:52;;;;;;;;;;;;;;;20.75;53.05;102729.78;7279849;19;152818;-55
2022/05/08 06:32:21;;;;;;;;;;;;;;;20.74;53.00;102733.72;7279986;19;154318;-55
2022/05/08 06:34:48;;;;;;;;;;;;;;;20.75;53.43;102739.06;7282586;19;152022;-55
2022/05/08 06:37:15;;;;;;;;;;;;;;;20.72;53.07;102733.97;7279999;19;153554;-55
2022/05/08 06:39:42;;;;;;;;;;;;;;;20.73;53.29;102730.06;7288098;19;155341;-55
2022/05/08 06:42:09;;;;;;;;;;;;;;;20.72;53.45;102739.59;7278001;19;151859;-55
2022/05/08 06:44:36;;;;;;;;;;;;;;;20.70;53.37;102741.84;7280569;19;154732;-55
2022/05/08 06:47:04;;;;;;;;;;;;;;;20.71;53.03;102749.16;7279973;19;152165;-55
2022/05/08 06:49:31;;;;;;;;;;;;;;;20.70;53.27;102747.44;7280413;19;154350;-55
2022/05/08 06:51:58;;;;;;;;;;;;;;;20.71;53.26;102749.16;7278757;19;153563;-55
2022/05/08 06:54:26;;;;;;;;;;;;;;;20.73;52.78;102749.72;7277210;19;152959;-55
2022/05/08 06:56:55;;;;;;;;;;;;;;;20.72;52.91;102753.63;7280910;19;153983;-55
2022/05/08 07:02:07;;;;;;;;;;;;;;;20.73;52.79;102754.47;7285834;19;151864;-56
2022/05/08 07:04:36;;;;;;;;;;;;;;;20.71;52.93;102757.56;7278377;19;153798;-55
2022/05/08 07:07:03;;;;;;;;;;;;;;;20.71;52.87;102762.34;7278474;19;151913;-55
2022/05/08 07:09:32;;;;;;;;;;;;;;;20.73;53.00;102760.94;7280458;19;152914;-55
2022/05/08 07:11:59;;;;;;;;;;;;;;;20.74;52.96;102757.03;7278173;19;154434;-55
2022/05/08 07:14:28;;;;;;;;;;;;;;;20.71;52.95;102759.53;7280432;19;151783;-54
2022/05/08 07:16:54;;;;;;;;;;;;;;;20.67;52.75;102750.75;7283126;19;154761;-54
2022/05/08 07:19:22;;;;;;;;;;;;;;;20.67;52.87;102758.38;7283577;19;153558;-55
2022/05/08 07:21:48;;;;;;;;;;;;;;;20.67;53.04;102756.38;7287132;19;152121;-55
2022/05/08 07:24:20;;;;;;;;;;;;;;;20.69;53.15;102751.38;7292800;19;152857;-54
2022/05/08 07:26:47;;;;;;;;;;;;;;;20.67;52.91;102756.38;7284141;19;151787;-55
2022/05/08 07:29:15;;;;;;;;;;;;;;;20.69;53.18;102758.94;7283206;19;153408;-55
2022/05/08 07:31:43;;;;;;;;;;;;;;;20.67;52.95;102759.19;7284291;19;154625;-55
2022/05/08 07:36:47;;;;;;;;;;;;;;;20.63;53.18;102752.41;7284400;19;152951;-54
2022/05/08 07:39:14;;;;;;;;;;;;;;;20.63;53.07;102754.38;7284086;19;153458;-54
2022/05/08 07:41:41;;;;;;;;;;;;;;;20.64;53.01;102758.88;7286698;19;151636;-55
2022/05/08 07:44:08;;;;;;;;;;;;;;;20.68;53.16;102760.03;7282095;19;153084;-56
2022/05/08 07:46:35;;;;;;;;;;;;;;;20.66;53.41;102759.47;7290357;19;154559;-54
2022/05/08 07:49:01;;;;;;;;;;;;;;;20.66;53.45;102765.09;7285295;19;153636;-54
2022/05/08 07:51:28;;;;;;;;;;;;;;;20.72;53.42;102766.81;7285180;19;155384;-55
2022/05/08 07:53:55;;;;;;;;;;;;;;;20.67;53.27;102762.00;7282627;19;152240;-55
2022/05/08 07:56:22;;;;;;;;;;;;;;;20.65;53.14;102767.06;7286241;19;152286;-54
2022/05/08 07:58:49;;;;;;;;;;;;;;;20.65;52.90;102767.06;7282604;19;154489;-55
2022/05/08 08:01:16;;;;;;;;;;;;;;;20.71;53.10;102774.44;7285126;19;152181;-55
2022/05/08 08:03:42;;;;;;;;;;;;;;;20.73;52.70;102772.19;7281372;19;153741;-55
2022/05/08 08:06:09;;;;;;;;;;;;;;;20.75;53.21;102764.34;7284091;19;153964;-55
2022/05/08 08:08:38;;;;;;;;;;;;;;;20.85;52.49;102764.44;7290091;19;151779;-55
2022/05/08 08:11:05;;;;;;;;;;;;;;;20.89;52.73;102758.31;7283472;19;153795;-54
2022/05/08 08:13:33;;;;;;;;;;;;;;;20.95;52.89;102762.81;7284849;19;152085;-55
2022/05/08 08:16:01;;;;;;;;;;;;;;;21.00;52.62;102763.72;7280630;19;153553;-55
2022/05/08 08:18:28;;;;;;;;;;;;;;;21.08;52.16;102766.03;7280699;19;153972;-54
2022/05/08 08:20:55;;;;;;;;;;;;;;;21.15;51.97;102763.91;7285892;19;151646;-54
2022/05/08 08:23:22;;;;;;;;;;;;;;;21.24;52.10;102761.44;7281404;19;153611;-55
2022/05/08 08:25:49;;;;;;;;;;;;;;;21.33;51.79;102754.19;7280991;19;154124;-55
2022/05/08 08:28:16;;;;;;;;;;;;;;;21.42;51.71;102754.53;7290200;19;151581;-56
2022/05/08 08:30:43;;;;;;;;;;;;;;;21.49;51.37;102750.38;7282094;19;155161;-55
2022/05/08 08:33:10;;;;;;;;;;;;;;;21.57;51.29;102757.47;7283697;19;151706;-55
2022/05/08 08:35:37;;;;;;;;;;;;;;;21.64;51.14;102756.09;7281801;19;153312;-55
2022/05/08 08:38:08;;;;;;;;;;;;;;;21.73;50.35;102759.25;7283224;19;153523;-55
2022/05/08 08:40:38;;;;;;;;;;;;;;;21.80;50.29;102756.19;7281667;19;151772;-55
2022/05/08 08:43:05;;;;;;;;;;;;;;;21.89;50.74;102757.38;7281252;19;152592;-55
2022/05/08 08:48:14;;;;;;;;;;;;;;;22.04;49.99;102747.03;7284795;19;151564;-56
2022/05/08 08:50:42;;;;;;;;;;;;;;;22.10;49.72;102745.94;7290888;19;152009;-55
2022/05/08 08:53:09;;;;;;;;;;;;;;;22.15;49.63;102745.97;7282277;19;151673;-55
2022/05/08 08:55:36;;;;;;;;;;;;;;;22.20;49.13;102736.69;7283791;19;152867;-56
2022/05/08 08:58:03;;;;;;;;;;;;;;;22.26;49.04;102737.56;7282280;19;155219;-57
2022/05/08 09:00:30;;;;;;;;;;;;;;;22.31;49.21;102741.22;7282310;19;151993;-55
2022/05/08 09:02:58;;;;;;;;;;;;;;;22.34;48.78;102737.88;7283337;19;152485;-56
2022/05/08 09:05:25;;;;;;;;;;;;;;;22.39;48.63;102735.06;7281228;19;154445;-55
2022/05/08 09:07:53;;;;;;;;;;;;;;;22.42;48.55;102733.66;7281614;19;152277;-55
2022/05/08 09:10:20;;;;;;;;;;;;;;;22.44;48.17;102737.88;7279857;19;152588;-55
2022/05/08 09:12:57;;;;;;;;;;;;;;;22.47;48.02;102731.72;7289028;19;153906;-55
2022/05/08 09:15:24;;;;;;;;;;;;;;;22.51;47.88;102723.53;7281511;19;153994;-55
2022/05/08 09:17:51;;;;;;;;;;;;;;;22.53;47.49;102733.38;7282463;19;154048;-56
2022/05/08 09:20:29;;;;;;;;;;;;;;;22.55;47.39;102736.78;7283649;19;152146;-56
2022/05/08 09:23:07;;;;;;;;;;;;;;;22.58;47.50;102735.38;7282748;19;152619;-55
2022/05/08 09:25:44;;;;;;;;;;;;;;;22.60;47.60;102736.81;7281250;19;153289;-56
2022/05/08 09:28:41;;;;;;;;;;;;;;;22.62;47.33;102740.16;7280087;19;151941;-56
2022/05/08 09:31:10;;;;;;;;;;;;;;;22.62;47.13;102728.91;7281695;19;153548;-55
2022/05/08 09:33:37;;;;;;;;;;;;;;;22.65;47.55;102726.66;7279822;19;153991;-55
2022/05/08 09:36:04;;;;;;;;;;;;;;;22.65;46.66;102740.75;7288526;19;152001;-55
2022/05/08 09:38:41;;;;;;;;;;;;;;;22.60;42.69;102731.16;7278546;19;154149;-56
2022/05/08 09:41:08;;;;;;;;;;;;;;;22.56;41.58;102727.22;7283369;19;153244;-55
2022/05/08 09:43:36;;;;;;;;;;;;;;;22.58;40.89;102730.59;7281728;19;153514;-55
2022/05/08 09:46:03;;;;;;;;;;;;;;;22.58;39.37;102721.28;7281974;19;153460;-55
2022/05/08 09:48:33;;;;;;;;;;;;;;;22.59;39.41;102723.84;7280583;19;151692;-56
2022/05/08 09:51:02;;;;;;;;;;;;;;;22.56;39.51;102732.84;7282892;19;152826;-56
2022/05/08 09:53:31;;;;;;;;;;;;;;;22.47;39.23;102728.88;7280057;19;154337;-55
2022/05/08 09:55:59;;;;;;;;;;;;;;;22.54;39.14;102720.16;7282442;19;151922;-55
2022/05/08 09:58:26;;;;;;;;;;;;;;;22.51;39.06;102723.53;7288225;19;151775;-55
2022/05/08 10:00:54;;;;;;;;;;;;;;;22.55;38.93;102714.25;7280572;19;152010;-55
2022/05/08 10:03:21;;;;;;;;;;;;;;;22.58;38.27;102713.69;7279588;19;152899;-55
2022/05/08 10:05:49;;;;;;;;;;;;;;;22.51;38.31;102715.94;7279257;19;153556;-55
2022/05/08 10:08:17;;;;;;;;;;;;;;;22.49;38.99;102717.31;7279809;19;151847;-55
2022/05/08 10:16:31;;;;;;;;;;;;;;;22.50;39.34;102714.25;7276612;19;152174;-56
2022/05/08 10:19:13;;;;;;;;;;;;;;;22.51;38.92;102712.28;7279323;19;154095;-55
2022/05/08 10:21:50;;;;;;;;;;;;;;;22.51;38.11;102706.63;7286523;19;153362;-55
2022/05/08 10:24:28;;;;;;;;;;;;;;;22.50;37.53;102704.94;7278992;19;152612;-56
2022/05/08 10:27:07;;;;;;;;;;;;;;;22.53;37.38;102698.78;7278745;19;153266;-55
2022/05/08 10:29:34;;;;;;;;;;;;;;;22.49;37.02;102694.78;7279514;19;151818;-55
2022/05/08 10:32:31;;;;;;;;;;;;;;;22.48;36.79;102693.97;7276147;19;153233;-55
2022/05/08 10:35:07;;;;;;;;;;;;;;;22.49;37.09;102692.81;7276074;19;153671;-55
2022/05/08 10:37:34;;;;;;;;;;;;;;;22.42;36.25;102695.06;7275277;19;152229;-55
2022/05/08 10:40:02;;;;;;;;;;;;;;;22.41;35.88;102684.06;7276948;19;152982;-55
2022/05/08 10:42:33;;;;;;;;;;;;;;;22.34;37.11;102684.38;7283050;19;154641;-55
2022/05/08 10:45:01;;;;;;;;;;;;;;;22.29;36.41;102686.31;7273840;19;155024;-55
2022/05/08 10:47:37;;;;;;;;;;;;;;;22.36;35.64;102696.19;7275897;19;153444;-56
2022/05/08 10:50:05;;;;;;;;;;;;;;;22.33;35.92;102698.72;7280390;19;151602;-55
2022/05/08 10:52:33;;;;;;;;;;;;;;;22.34;35.79;102694.78;7283590;19;153598;-56
2022/05/08 10:55:35;;;;;;;;;;;;;;;22.27;37.08;102692.22;7152433;19;3234681;-61
2022/05/08 10:58:02;;;;;;;;;;;;;;;22.26;37.73;102693.34;7311582;19;153764;-60
2022/05/08 11:00:30;;;;;;;;;;;;;;;22.31;37.71;102698.13;7314893;19;153454;-61
2022/05/08 11:02:57;;;;;;;;;;;;;;;22.28;37.86;102691.09;7317818;19;152777;-61
2022/05/08 11:05:26;;;;;;;;;;;;;;;22.33;38.12;102695.91;7314132;19;154406;-61
2022/05/08 11:07:56;;;;;;;;;;;;;;;22.35;38.11;102699.28;7312780;19;152378;-61
2022/05/08 11:10:25;;;;;;;;;;;;;;;22.30;37.42;102696.47;7315155;19;153050;-62
2022/05/08 11:13:01;;;;;;;;;;;;;;;22.35;38.24;102688.03;7313817;19;154712;-61
2022/05/08 11:15:31;;;;;;;;;;;;;;;22.39;38.37;102694.78;7319832;19;151910;-61
2022/05/08 11:18:07;;;;;;;;;;;;;;;22.42;38.65;102703.53;7313240;19;153391;-61
2022/05/08 11:20:36;;;;;;;;;;;;;;;22.43;38.79;102708.03;7317228;19;151850;-61
2022/05/08 11:23:04;;;;;;;;;;;;;;;22.44;39.17;102698.44;7313335;19;153196;-62
2022/05/08 11:25:32;;;;;;;;;;;;;;;22.48;38.90;102693.97;7315190;19;152145;-61
2022/05/08 11:27:59;;;;;;;;;;;;;;;22.48;39.20;102691.16;7312161;19;152703;-62
2022/05/08 11:30:36;;;;;;;;;;;;;;;22.53;38.90;102695.94;7314422;19;153214;-61
2022/05/08 11:38:27;;;;;;;;;;;;;;;22.60;39.79;102680.44;7320365;19;153126;-61
2022/05/08 11:40:53;;;;;;;;;;;;;;;22.62;39.87;102678.19;7316586;19;151863;-61
2022/05/08 11:43:36;;;;;;;;;;;;;;;22.63;39.67;102673.41;7314414;19;153251;-62
2022/05/08 11:46:02;;;;;;;;;;;;;;;22.65;39.69;102684.41;7313735;19;153246;-62
2022/05/08 11:48:36;;;;;;;;;;;;;;;22.65;40.20;102676.78;7313968;19;151695;-62
2022/05/08 11:51:04;;;;;;;;;;;;;;;22.68;40.25;102673.41;7314237;19;153399;-62
2022/05/08 11:53:40;;;;;;;;;;;;;;;22.69;39.94;102665.81;7313865;19;154420;-61
2022/05/08 11:56:19;;;;;;;;;;;;;;;22.70;40.45;102673.16;7315998;19;151909;-62
2022/05/08 11:58:47;;;;;;;;;;;;;;;22.70;40.47;102665.56;7313985;19;153236;-61
2022/05/08 12:01:24;;;;;;;;;;;;;;;22.71;40.33;102652.31;7322192;19;155337;-62
2022/05/08 12:03:51;;;;;;;;;;;;;;;22.71;40.35;102657.97;7314466;19;151698;-62
2022/05/08 12:06:18;;;;;;;;;;;;;;;22.72;40.52;102654.00;7292426;19;153437;-62
2022/05/08 12:08:52;;;;;;;;;;;;;;;22.72;40.24;102656.81;7285014;19;152075;-61
2022/05/08 12:11:29;;;;;;;;;;;;;;;22.72;40.36;102652.00;7286488;19;153630;-61
2022/05/08 12:14:05;;;;;;;;;;;;;;;22.73;40.31;102650.03;7285144;19;153203;-61
2022/05/08 12:16:32;;;;;;;;;;;;;;;22.73;40.63;102658.50;7286925;19;151735;-62
2022/05/08 12:19:10;;;;;;;;;;;;;;;22.73;40.49;102658.50;7286449;19;152671;-62
2022/05/08 12:21:38;;;;;;;;;;;;;;;22.74;40.96;102646.97;7282240;19;153884;-61
2022/05/08 12:24:09;;;;;;;;;;;;;;;22.73;40.74;102641.59;7291832;19;154087;-62
2022/05/08 12:26:36;;;;;;;;;;;;;;;22.74;41.10;102646.09;7285611;19;153371;-62
2022/05/08 12:29:05;;;;;;;;;;;;;;;22.74;40.84;102646.97;7286883;19;152047;-62
2022/05/08 12:31:32;;;;;;;;;;;;;;;22.74;41.06;102634.84;7284137;19;153733;-61
2022/05/08 12:33:59;;;;;;;;;;;;;;;22.72;41.02;102626.66;7284846;19;154423;-62
2022/05/08 12:36:26;;;;;;;;;;;;;;;22.73;40.94;102635.97;7285024;19;151852;-61
2022/05/08 12:38:53;;;;;;;;;;;;;;;22.74;41.11;102632.03;7282949;19;152625;-62
2022/05/08 12:41:20;;;;;;;;;;;;;;;22.74;41.15;102629.19;7283028;19;154146;-61
2022/05/08 12:43:47;;;;;;;;;;;;;;;22.72;40.99;102618.19;7283007;19;152084;-62
2022/05/08 12:46:14;;;;;;;;;;;;;;;22.73;40.86;102619.06;7292564;19;153008;-61
2022/05/08 12:48:41;;;;;;;;;;;;;;;22.72;41.33;102618.19;7284343;19;151847;-62
2022/05/08 12:51:08;;;;;;;;;;;;;;;22.72;40.92;102617.34;7283718;19;153815;-62
2022/05/08 12:53:35;;;;;;;;;;;;;;;22.70;40.93;102623.28;7281548;19;153952;-62
2022/05/08 12:56:02;;;;;;;;;;;;;;;22.70;40.96;102616.81;7281227;19;151783;-61
2022/05/08 13:01:06;;;;;;;;;;;;;;;22.68;41.12;102608.59;7284076;19;154392;-62
2022/05/08 13:03:33;;;;;;;;;;;;;;;22.68;41.31;102608.59;7284572;19;151506;-61
2022/05/08 13:06:06;;;;;;;;;;;;;;;22.67;41.47;102608.91;7285661;19;152295;-62